Time;durP1;ratioP1;P1;durP2;ratioP2;P2;SDS_P1;SDS_P2;PMS_P1;PMS_P2;Temp;Humidity;BMP_temperature;BMP_pressure;BME280_temperature;BME280_humidity;BME280_pressure;Samples;Min_cycle;Max_cycle;Signal;HPM_P1;HPM_P2
2023/09/17 00:01:28;;;;;;;24.80;16.80;;;;;;;11.59;100.00;101850.11;105710;1251;62847;-71
2023/09/17 00:03:56;;;;;;;19.50;15.70;;;;;;;11.58;100.00;101850.53;105615;1254;71494;-72
2023/09/17 00:06:24;;;;;;;20.10;16.10;;;;;;;11.57;100.00;101850.92;105621;1253;60333;-72
2023/09/17 00:08:51;;;;;;;20.00;15.10;;;;;;;11.57;100.00;101854.24;105614;1252;60143;-71
2023/09/17 00:11:18;;;;;;;20.30;14.70;;;;;;;11.57;100.00;101855.14;105812;1253;73135;-71
2023/09/17 00:13:46;;;;;;;20.80;15.60;;;;;;;11.56;100.00;101855.19;105769;1256;63549;-73
2023/09/17 00:16:13;;;;;;;22.30;14.90;;;;;;;11.54;100.00;101856.16;105690;1257;73426;-72
2023/09/17 00:18:41;;;;;;;24.10;15.10;;;;;;;11.52;100.00;101860.98;105730;1254;60589;-72
2023/09/17 00:21:08;;;;;;;28.70;15.70;;;;;;;11.50;100.00;101860.18;105672;1260;60114;-73
2023/09/17 00:23:36;;;;;;;25.10;14.30;;;;;;;11.47;100.00;101857.67;105928;1250;72058;-74
2023/09/17 00:26:03;;;;;;;23.60;14.60;;;;;;;11.44;100.00;101859.73;105948;1254;64629;-72
2023/09/17 00:28:30;;;;;;;20.10;14.70;;;;;;;11.41;100.00;101857.25;105773;1253;71503;-71
2023/09/17 00:30:58;;;;;;;16.90;13.70;;;;;;;11.39;100.00;101854.36;105742;1253;60498;-71
2023/09/17 00:33:25;;;;;;;19.90;14.30;;;;;;;11.37;100.00;101855.31;105780;1256;59531;-72
2023/09/17 00:35:53;;;;;;;16.30;13.10;;;;;;;11.34;100.00;101855.79;105747;1257;72139;-69
2023/09/17 00:38:20;;;;;;;17.70;14.30;;;;;;;11.32;100.00;101853.25;105795;1257;62591;-69
2023/09/17 00:40:49;;;;;;;22.60;15.10;;;;;;;11.31;100.00;101855.06;105818;1253;71482;-68
2023/09/17 00:43:18;;;;;;;22.10;15.70;;;;;;;11.29;100.00;101855.15;105794;1253;61101;-70
2023/09/17 00:45:45;;;;;;;24.40;14.70;;;;;;;11.27;100.00;101853.81;105776;1250;60134;-71
2023/09/17 00:48:13;;;;;;;19.60;14.10;;;;;;;11.27;100.00;101853.99;105772;1250;73025;-71
2023/09/17 00:50:41;;;;;;;14.40;12.70;;;;;;;11.26;100.00;101849.52;105698;1256;63491;-70
2023/09/17 00:53:08;;;;;;;16.30;13.50;;;;;;;11.24;100.00;101846.79;105791;1257;71379;-70
2023/09/17 00:55:37;;;;;;;20.10;13.40;;;;;;;11.22;100.00;101846.68;105811;1250;62369;-69
2023/09/17 00:58:04;;;;;;;16.20;13.30;;;;;;;11.19;100.00;101848.73;105928;1252;59614;-71
2023/09/17 01:00:36;;;;;;;18.00;13.40;;;;;;;11.16;100.00;101847.44;105776;1250;72076;-73
2023/09/17 01:03:07;;;;;;;17.80;13.50;;;;;;;11.13;100.00;101844.94;105901;1250;61944;-72
2023/09/17 01:05:40;;;;;;;16.90;13.10;;;;;;;11.11;100.00;101846.25;105800;1257;71690;-72
2023/09/17 01:08:09;;;;;;;14.70;12.50;;;;;;;11.09;100.00;101845.46;105745;1252;60415;-70
2023/09/17 01:10:40;;;;;;;18.10;13.70;;;;;;;11.07;100.00;101844.70;105702;1258;59987;-71
2023/09/17 01:13:11;;;;;;;13.90;12.40;;;;;;;11.05;100.00;101843.73;105810;1250;73061;-71
2023/09/17 01:15:38;;;;;;;15.90;12.90;;;;;;;11.04;100.00;101845.35;105923;1255;63387;-70
2023/09/17 01:18:06;;;;;;;15.80;13.20;;;;;;;11.02;100.00;101845.44;105669;1250;73497;-72
2023/09/17 01:20:43;;;;;;;17.40;13.60;;;;;;;11.00;100.00;101849.20;105915;1250;61720;-71
2023/09/17 01:23:26;;;;;;;12.90;11.70;;;;;;;10.98;100.00;101845.42;105890;1250;59670;-72
2023/09/17 01:25:58;;;;;;;14.40;12.80;;;;;;;10.97;100.00;101845.65;105764;1250;71621;-72
2023/09/17 01:28:25;;;;;;;14.90;12.20;;;;;;;10.96;100.00;101848.48;105701;1250;61423;-72
2023/09/17 01:30:53;;;;;;;13.80;12.20;;;;;;;10.94;100.00;101846.80;105865;1254;71755;-71
2023/09/17 01:33:21;;;;;;;15.90;13.10;;;;;;;10.93;100.00;101846.86;105784;1250;61859;-73
2023/09/17 01:35:54;;;;;;;18.60;12.10;;;;;;;10.91;100.00;101844.11;105892;1257;60111;-70
2023/09/17 01:38:21;;;;;;;15.00;12.80;;;;;;;10.90;100.00;101842.42;105781;1250;73085;-71
2023/09/17 01:40:49;;;;;;;15.20;12.20;;;;;;;10.88;100.00;101843.05;105568;1250;62394;-72
2023/09/17 01:43:18;;;;;;;18.30;12.50;;;;;;;10.87;100.00;101845.02;105767;1250;72900;-73
2023/09/17 01:45:48;;;;;;;14.10;12.50;;;;;;;10.85;100.00;101844.56;105874;1250;61759;-72
2023/09/17 01:48:15;;;;;;;15.20;13.70;;;;;;;10.83;100.00;101846.02;105780;1257;60273;-69
2023/09/17 01:50:43;;;;;;;14.30;12.60;;;;;;;10.81;100.00;101844.71;105750;1252;74145;-70
2023/09/17 01:53:12;;;;;;;15.90;13.10;;;;;;;10.82;100.00;101843.64;105803;1250;62480;-71
2023/09/17 01:55:41;;;;;;;14.30;11.60;;;;;;;10.81;100.00;101848.41;105468;1250;72691;-72
2023/09/17 01:58:13;;;;;;;14.00;12.00;;;;;;;10.79;100.00;101842.50;109539;1250;62495;-70
2023/09/17 02:00:40;;;;;;;17.00;12.90;;;;;;;10.78;100.00;101840.47;109606;1250;59632;-71
2023/09/17 02:03:08;;;;;;;18.40;12.90;;;;;;;10.77;100.00;101838.06;109672;1250;73093;-70
2023/09/17 02:05:36;;;;;;;14.90;12.80;;;;;;;10.76;100.00;101838.26;109700;1250;64004;-70
2023/09/17 02:08:03;;;;;;;13.40;12.00;;;;;;;10.75;100.00;101835.52;109628;1250;72731;-70
2023/09/17 02:10:32;;;;;;;17.70;12.30;;;;;;;10.74;100.00;101837.33;109600;1250;61678;-70
2023/09/17 02:12:59;;;;;;;16.00;11.60;;;;;;;10.72;100.00;101836.52;109724;1250;58831;-69
2023/09/17 02:15:28;;;;;;;13.90;12.10;;;;;;;10.71;100.00;101837.45;109652;1250;72172;-72
2023/09/17 02:17:56;;;;;;;17.00;12.00;;;;;;;10.69;100.00;101842.95;109587;1250;63871;-70
2023/09/17 02:20:23;;;;;;;17.80;11.40;;;;;;;10.68;100.00;101841.42;109663;1250;70459;-70
2023/09/17 02:22:51;;;;;;;12.80;11.50;;;;;;;10.68;100.00;101835.81;109624;1251;61752;-70
2023/09/17 02:25:18;;;;;;;12.90;11.60;;;;;;;10.68;100.00;101833.35;109716;1250;59083;-70
2023/09/17 02:27:46;;;;;;;14.90;11.10;;;;;;;10.68;100.00;101829.71;109592;1250;71034;-70
2023/09/17 02:30:13;;;;;;;13.70;10.90;;;;;;;10.66;100.00;101830.85;109612;1250;63558;-70
2023/09/17 02:32:42;;;;;;;12.60;11.20;;;;;;;10.64;100.00;101829.35;109649;1250;72417;-69
2023/09/17 02:35:09;;;;;;;12.80;11.20;;;;;;;10.63;100.00;101830.43;109541;1254;60226;-69
2023/09/17 02:37:41;;;;;;;13.10;11.10;;;;;;;10.62;100.00;101832.39;109575;1250;60167;-69
2023/09/17 02:40:09;;;;;;;12.20;10.90;;;;;;;10.62;100.00;101834.67;109695;1250;73028;-69
2023/09/17 02:42:37;;;;;;;13.00;11.70;;;;;;;10.62;100.00;101832.02;109667;1250;62276;-70
2023/09/17 02:45:05;;;;;;;17.70;11.60;;;;;;;10.62;100.00;101835.70;109646;1250;71707;-70
2023/09/17 02:47:35;;;;;;;17.10;12.00;;;;;;;10.62;100.00;101837.77;109570;1256;61769;-70
2023/09/17 02:50:03;;;;;;;12.80;11.50;;;;;;;10.61;100.00;101835.93;109699;1250;58810;-69
2023/09/17 02:52:31;;;;;;;13.40;12.10;;;;;;;10.61;100.00;101835.95;109647;1254;73096;-70
2023/09/17 02:54:58;;;;;;;12.60;11.00;;;;;;;10.60;100.00;101836.67;109691;1250;62268;-69
2023/09/17 02:57:26;;;;;;;12.60;11.00;;;;;;;10.60;100.00;101836.31;109620;1250;72881;-69
2023/09/17 02:59:53;;;;;;;14.20;10.80;;;;;;;10.58;100.00;101839.34;109659;1250;59478;-69
2023/09/17 03:02:21;;;;;;;17.90;10.60;;;;;;;10.56;100.00;101839.78;109625;1250;58303;-70
2023/09/17 03:04:52;;;;;;;11.90;10.70;;;;;;;10.54;100.00;101843.55;109606;1250;73933;-69
2023/09/17 03:07:20;;;;;;;14.40;11.80;;;;;;;10.51;100.00;101843.98;109690;1250;62495;-68
2023/09/17 03:09:47;;;;;;;11.50;10.40;;;;;;;10.50;100.00;101845.65;109586;1250;72711;-69
2023/09/17 03:12:15;;;;;;;14.10;10.80;;;;;;;10.48;100.00;101848.14;109402;1250;61712;-69
2023/09/17 03:14:42;;;;;;;14.40;10.80;;;;;;;10.48;100.00;101850.27;109620;1250;58813;-70
2023/09/17 03:17:10;;;;;;;12.90;10.30;;;;;;;10.45;100.00;101849.13;109542;1250;72571;-70
2023/09/17 03:19:38;;;;;;;12.90;10.70;;;;;;;10.44;100.00;101846.41;109675;1250;62275;-70
2023/09/17 03:22:06;;;;;;;13.80;11.40;;;;;;;10.42;100.00;101852.95;109544;1250;72641;-69
2023/09/17 03:24:34;;;;;;;14.50;11.10;;;;;;;10.41;100.00;101856.33;109632;1251;61734;-69
2023/09/17 03:27:02;;;;;;;12.30;9.50;;;;;;;10.39;100.00;101858.65;109680;1250;60021;-69
2023/09/17 03:29:30;;;;;;;11.60;10.00;;;;;;;10.37;100.00;101859.81;109584;1250;74053;-70
2023/09/17 03:31:58;;;;;;;13.10;10.10;;;;;;;10.35;100.00;101858.10;109585;1250;63336;-70
2023/09/17 03:34:26;;;;;;;14.10;10.70;;;;;;;10.35;100.00;101861.41;109464;1257;72694;-69
2023/09/17 03:36:53;;;;;;;14.70;12.30;;;;;;;10.36;100.00;101856.85;109590;1253;60485;-69
2023/09/17 03:39:22;;;;;;;13.80;11.40;;;;;;;10.36;100.00;101859.14;109608;1250;60092;-69
2023/09/17 03:41:49;;;;;;;12.70;10.40;;;;;;;10.34;100.00;101861.97;109638;1250;72608;-70
2023/09/17 03:44:17;;;;;;;16.20;10.60;;;;;;;10.33;100.00;101859.20;109653;1250;63716;-68
2023/09/17 03:46:45;;;;;;;14.70;12.00;;;;;;;10.33;100.00;101859.56;109556;1251;72681;-69
2023/09/17 03:49:13;;;;;;;15.20;11.00;;;;;;;10.33;100.00;101863.95;109536;1250;61773;-69
2023/09/17 03:51:40;;;;;;;12.40;10.70;;;;;;;10.34;100.00;101862.52;109585;1250;58825;-70
2023/09/17 03:54:08;;;;;;;16.40;11.00;;;;;;;10.35;100.00;101867.20;109660;1250;73974;-71
2023/09/17 03:56:36;;;;;;;12.90;11.50;;;;;;;10.38;100.00;101874.42;109604;1250;63585;-70
2023/09/17 03:59:04;;;;;;;13.10;11.50;;;;;;;10.41;100.00;101876.40;109380;1250;72677;-70
2023/09/17 04:01:32;;;;;;;12.80;11.40;;;;;;;10.45;100.00;101876.27;109564;1253;60384;-70
2023/09/17 04:04:00;;;;;;;19.70;11.40;;;;;;;10.48;100.00;101878.05;109672;1250;60062;-69
2023/09/17 04:06:29;;;;;;;14.50;11.20;;;;;;;10.52;100.00;101881.73;109562;1250;73823;-69
2023/09/17 04:08:56;;;;;;;18.60;11.40;;;;;;;10.56;100.00;101883.30;109610;1250;62487;-70
2023/09/17 04:11:24;;;;;;;21.10;12.40;;;;;;;10.60;100.00;101887.91;109602;1250;72736;-70
2023/09/17 04:13:51;;;;;;;14.90;11.30;;;;;;;10.63;100.00;101889.19;109597;1251;61781;-70
2023/09/17 04:16:23;;;;;;;15.30;11.00;;;;;;;10.65;100.00;101894.00;109665;1250;58184;-71
2023/09/17 04:18:50;;;;;;;13.00;11.60;;;;;;;10.68;100.00;101891.98;109655;1250;72545;-70
2023/09/17 04:21:18;;;;;;;14.30;11.70;;;;;;;10.70;100.00;101889.26;109613;1250;63709;-69
2023/09/17 04:23:45;;;;;;;14.40;11.40;;;;;;;10.73;100.00;101885.63;109634;1250;72737;-70
2023/09/17 04:26:13;;;;;;;13.40;11.00;;;;;;;10.77;100.00;101886.87;109575;1250;60686;-69
2023/09/17 04:28:42;;;;;;;18.40;11.10;;;;;;;10.82;100.00;101886.49;109602;1250;60117;-70
2023/09/17 04:31:09;;;;;;;17.30;12.30;;;;;;;10.87;100.00;101884.72;109668;1250;73858;-69
2023/09/17 04:33:37;;;;;;;16.80;12.80;;;;;;;10.93;100.00;101887.63;109484;1250;63558;-70
2023/09/17 04:36:04;;;;;;;14.70;12.60;;;;;;;10.99;100.00;101889.30;109613;1250;72783;-70
2023/09/17 04:38:32;;;;;;;15.40;12.70;;;;;;;11.06;100.00;101884.48;109540;1252;60409;-68
2023/09/17 04:41:00;;;;;;;13.10;11.60;;;;;;;11.13;100.00;101879.26;109694;1250;60032;-69
2023/09/17 04:43:27;;;;;;;15.10;13.70;;;;;;;11.24;100.00;101881.29;109676;1250;74318;-70
2023/09/17 04:45:55;;;;;;;16.80;12.50;;;;;;;11.34;100.00;101884.88;109665;1250;63642;-70
2023/09/17 04:48:33;;;;;;;18.60;14.40;;;;;;;11.47;100.00;101882.20;109650;1250;71515;-70
2023/09/17 04:51:00;;;;;;;17.60;15.00;;;;;;;11.63;100.00;101887.10;109557;1253;61658;-70
2023/09/17 04:53:28;;;;;;;22.80;15.80;;;;;;;12.00;100.00;101887.91;109682;1250;59249;-69
2023/09/17 04:55:55;;;;;;;20.40;13.30;;;;;;;12.57;100.00;101891.39;109659;1250;73875;-70
2023/09/17 04:58:28;;;;;;;16.30;13.30;;;;;;;13.27;100.00;101891.64;109604;1250;63820;-70
2023/09/17 05:00:56;;;;;;;17.90;13.30;;;;;;;14.03;100.00;101889.77;109628;1250;71257;-71
2023/09/17 05:03:24;;;;;;;20.40;13.90;;;;;;;14.82;100.00;101893.86;109573;1250;61693;-69
2023/09/17 05:05:52;;;;;;;18.10;12.90;;;;;;;15.56;100.00;101899.91;109690;1254;60167;-71
2023/09/17 05:08:19;;;;;;;12.90;10.70;;;;;;;16.26;100.00;101904.95;109593;1250;72615;-69
2023/09/17 05:10:47;;;;;;;22.30;12.60;;;;;;;16.94;100.00;101901.48;109735;1250;62560;-70
2023/09/17 05:13:15;;;;;;;13.30;11.80;;;;;;;17.59;100.00;101905.39;109569;1250;71825;-70
2023/09/17 05:15:43;;;;;;;14.50;11.00;;;;;;;18.20;100.00;101911.44;109612;1253;60714;-72
2023/09/17 05:18:10;;;;;;;14.50;11.10;;;;;;;18.72;100.00;101917.39;109680;1250;59214;-70
2023/09/17 05:20:44;;;;;;;16.70;11.10;;;;;;;19.10;100.00;101922.04;109583;1257;72595;-71
2023/09/17 05:23:12;;;;;;;12.60;11.40;;;;;;;19.43;100.00;101925.60;109579;1257;63549;-71
2023/09/17 05:25:39;;;;;;;13.30;11.50;;;;;;;19.74;100.00;101923.17;109637;1250;72723;-70
2023/09/17 05:28:07;;;;;;;12.70;10.50;;;;;;;20.17;100.00;101922.34;109590;1252;60396;-71
2023/09/17 05:30:35;;;;;;;15.20;11.90;;;;;;;20.66;100.00;101922.27;109618;1250;60053;-71
2023/09/17 05:33:05;;;;;;;15.10;10.00;;;;;;;21.18;100.00;101919.95;109639;1250;73821;-70
2023/09/17 05:35:36;;;;;;;19.60;11.20;;;;;;;21.67;100.00;101915.23;109608;1250;62472;-71
2023/09/17 05:38:04;;;;;;;17.40;11.30;;;;;;;22.15;100.00;101915.14;109561;1250;71240;-71
2023/09/17 05:40:31;;;;;;;16.30;11.20;;;;;;;22.59;100.00;101915.91;109560;1252;62196;-71
2023/09/17 05:42:59;;;;;;;11.50;10.10;;;;;;;23.02;98.40;101916.77;109644;1256;60025;-71
2023/09/17 05:45:27;;;;;;;14.60;9.70;;;;;;;23.47;94.65;101915.27;109571;1250;74377;-71
2023/09/17 05:47:55;;;;;;;17.20;10.40;;;;;;;23.91;89.73;101915.73;109620;1250;62442;-70
2023/09/17 05:50:23;;;;;;;14.60;9.90;;;;;;;24.35;85.34;101915.23;109638;1255;71809;-72
2023/09/17 05:52:50;;;;;;;13.60;10.30;;;;;;;24.72;82.77;101920.56;109693;1250;60852;-71
2023/09/17 05:55:18;;;;;;;12.80;11.40;;;;;;;25.04;79.71;101913.63;109604;1256;58890;-71
2023/09/17 05:57:46;;;;;;;14.20;10.80;;;;;;;25.33;76.79;101919.11;109576;1250;74002;-72
2023/09/17 06:00:14;;;;;;;11.80;10.40;;;;;;;25.61;73.55;101910.50;109602;1250;63714;-70
2023/09/17 06:02:41;;;;;;;13.40;9.50;;;;;;;25.97;69.23;101909.63;109651;1251;72524;-72
2023/09/17 06:05:10;;;;;;;11.10;10.10;;;;;;;26.39;65.07;101908.54;109383;1254;60068;-72
2023/09/17 06:07:37;;;;;;;11.90;10.90;;;;;;;26.83;62.24;101911.39;109694;1250;60013;-71
2023/09/17 06:10:05;;;;;;;12.90;9.80;;;;;;;27.24;58.92;101910.79;109621;1256;74294;-72
2023/09/17 06:12:33;;;;;;;11.40;9.70;;;;;;;27.64;56.25;101912.50;109554;1250;62248;-70
2023/09/17 06:15:02;;;;;;;11.80;9.40;;;;;;;27.92;54.46;101911.08;109538;1251;72746;-71
2023/09/17 06:17:30;;;;;;;10.50;9.50;;;;;;;28.12;53.17;101916.26;109621;1256;58951;-70
2023/09/17 06:19:57;;;;;;;12.20;9.50;;;;;;;28.36;51.94;101917.95;109879;1251;59975;-71
2023/09/17 06:22:25;;;;;;;10.70;9.80;;;;;;;28.64;50.75;101917.58;109631;1251;74032;-71
2023/09/17 06:24:53;;;;;;;9.90;8.80;;;;;;;28.93;49.43;101916.27;109540;1249;62592;-70
2023/09/17 06:27:21;;;;;;;10.40;9.30;;;;;;;29.21;48.48;101918.70;109671;1251;72485;-71
2023/09/17 06:29:48;;;;;;;11.30;10.30;;;;;;;29.45;46.74;101919.07;109663;1251;60617;-72
2023/09/17 06:32:16;;;;;;;11.00;9.90;;;;;;;29.60;44.30;101924.27;109534;1257;60155;-70
2023/09/17 06:34:44;;;;;;;11.40;10.30;;;;;;;29.63;43.61;101921.66;109563;1251;74046;-72
2023/09/17 06:37:11;;;;;;;11.40;10.30;;;;;;;29.80;43.67;101918.35;109587;1250;63607;-71
2023/09/17 06:39:42;;;;;;;12.30;10.20;;;;;;;30.05;42.73;101916.63;109539;1256;72734;-72
2023/09/17 06:42:10;;;;;;;12.00;10.80;;;;;;;30.29;42.26;101918.76;109609;1251;60145;-71
2023/09/17 06:44:38;;;;;;;11.00;10.00;;;;;;;30.50;40.87;101918.73;109678;1251;58891;-69
2023/09/17 06:47:05;;;;;;;11.30;9.80;;;;;;;30.70;40.55;101919.31;109661;1251;73897;-70
2023/09/17 06:49:34;;;;;;;11.20;9.40;;;;;;;30.84;39.27;101915.95;109668;1250;63613;-70
2023/09/17 06:52:01;;;;;;;10.80;9.90;;;;;;;30.99;38.72;101916.80;109565;1251;73373;-70
2023/09/17 06:54:29;;;;;;;13.90;10.70;;;;;;;31.17;38.25;101918.08;109628;1251;58819;-74
2023/09/17 06:56:56;;;;;;;10.50;9.40;;;;;;;31.33;37.22;101922.02;109718;1251;59566;-71
2023/09/17 06:59:24;;;;;;;13.80;11.00;;;;;;;31.18;36.24;101921.42;109627;1256;75946;-70
2023/09/17 07:01:51;;;;;;;11.90;10.90;;;;;;;30.89;36.21;101916.90;109676;1250;63702;-71
2023/09/17 07:04:19;;;;;;;13.40;11.90;;;;;;;30.92;36.49;101917.55;109630;1251;72497;-72
2023/09/17 07:06:47;;;;;;;12.00;10.90;;;;;;;30.96;36.20;101920.25;109632;1256;58797;-71
2023/09/17 07:09:15;;;;;;;13.70;11.10;;;;;;;30.88;36.17;101920.01;109679;1251;58795;-70
2023/09/17 07:11:42;;;;;;;13.00;10.70;;;;;;;30.68;36.26;101922.70;109812;1251;73865;-71
2023/09/17 07:14:10;;;;;;;11.30;9.90;;;;;;;30.57;36.81;101921.57;109638;1250;62548;-71
2023/09/17 07:16:41;;;;;;;10.50;9.50;;;;;;;30.71;36.87;101921.33;109620;1251;71643;-74
2023/09/17 07:19:08;;;;;;;12.20;11.00;;;;;;;30.94;36.64;101917.85;109664;1252;60095;-73
2023/09/17 07:21:36;;;;;;;13.00;10.70;;;;;;;30.99;36.14;101920.10;109704;1250;58837;-71
2023/09/17 07:24:04;;;;;;;15.50;11.80;;;;;;;30.82;36.49;101923.30;109665;1251;73886;-71
2023/09/17 07:26:31;;;;;;;11.40;10.30;;;;;;;30.87;36.43;101924.40;109715;1250;63753;-73
2023/09/17 07:28:59;;;;;;;12.30;11.20;;;;;;;31.08;36.48;101921.42;109629;1250;72921;-71
2023/09/17 07:31:26;;;;;;;13.20;11.90;;;;;;;31.15;36.34;101919.10;109789;1251;58861;-71
2023/09/17 07:33:54;;;;;;;12.00;11.00;;;;;;;31.19;36.10;101917.67;109671;1251;58894;-71
2023/09/17 07:36:22;;;;;;;11.80;10.80;;;;;;;31.16;36.08;101913.48;109629;1251;72955;-70
2023/09/17 07:38:49;;;;;;;12.00;10.70;;;;;;;31.12;35.95;101909.54;109711;1254;63721;-70
2023/09/17 07:41:16;;;;;;;13.20;11.50;;;;;;;31.20;36.05;101911.18;109659;1251;72836;-71
2023/09/17 07:43:44;;;;;;;12.10;10.90;;;;;;;31.42;36.04;101908.77;109642;1252;60116;-71
2023/09/17 07:46:13;;;;;;;12.40;10.80;;;;;;;31.57;35.63;101905.69;109672;1251;60114;-72
2023/09/17 07:48:41;;;;;;;12.90;11.60;;;;;;;31.62;35.34;101904.80;109682;1251;73899;-70
2023/09/17 07:51:08;;;;;;;15.40;10.70;;;;;;;31.72;35.39;101902.27;109664;1250;62258;-72
2023/09/17 07:53:36;;;;;;;11.80;10.70;;;;;;;31.89;35.02;101898.11;109690;1251;73209;-70
2023/09/17 07:56:03;;;;;;;13.80;10.70;;;;;;;32.00;34.59;101899.75;109658;1253;60112;-70
2023/09/17 07:58:30;;;;;;;13.70;11.50;;;;;;;32.09;34.65;101897.89;109679;1251;60119;-71
2023/09/17 08:00:58;;;;;;;12.20;10.60;;;;;;;32.40;34.36;101899.69;109651;1251;73904;-71
2023/09/17 08:03:25;;;;;;;11.50;10.40;;;;;;;32.68;33.75;101900.05;109653;1250;62306;-71
2023/09/17 08:05:53;;;;;;;11.80;10.70;;;;;;;32.77;33.49;101900.30;109673;1251;71846;-71
2023/09/17 08:08:21;;;;;;;13.50;11.60;;;;;;;32.74;32.97;101899.50;109679;1253;58902;-70
2023/09/17 08:10:51;;;;;;;11.30;10.30;;;;;;;32.82;33.05;101897.45;109665;1255;60038;-69
2023/09/17 08:13:20;;;;;;;10.20;9.20;;;;;;;33.07;32.44;101893.03;109662;1251;72614;-71
2023/09/17 08:15:50;;;;;;;10.20;9.20;;;;;;;33.17;32.36;101891.27;109637;1251;63761;-69
2023/09/17 08:18:17;;;;;;;10.50;9.40;;;;;;;33.18;32.16;101889.39;109623;1251;71607;-71
2023/09/17 08:20:45;;;;;;;9.50;8.60;;;;;;;33.22;32.27;101889.17;109598;1254;60093;-71
2023/09/17 08:23:13;;;;;;;9.80;8.80;;;;;;;33.34;32.46;101888.81;109662;1251;58784;-70
2023/09/17 08:25:40;;;;;;;9.80;8.80;;;;;;;33.51;31.60;101881.53;109509;1257;73880;-72
2023/09/17 08:28:13;;;;;;;11.90;8.90;;;;;;;33.55;31.60;101879.38;109619;1250;64174;-72
2023/09/17 08:30:40;;;;;;;10.60;7.90;;;;;;;33.68;31.65;101875.77;109660;1251;72780;-70
2023/09/17 08:33:10;;;;;;;9.80;8.90;;;;;;;33.94;31.24;101874.85;109621;1251;58965;-72
2023/09/17 08:35:38;;;;;;;8.90;8.00;;;;;;;34.16;31.19;101870.83;109627;1251;60603;-71
2023/09/17 08:38:06;;;;;;;10.00;7.70;;;;;;;34.38;30.49;101872.14;109539;1251;75854;-71
2023/09/17 08:40:34;;;;;;;8.00;7.20;;;;;;;34.59;30.11;101868.77;109577;1251;62464;-70
2023/09/17 08:43:02;;;;;;;7.70;6.90;;;;;;;34.89;30.14;101869.24;109628;1250;71992;-71
2023/09/17 08:45:30;;;;;;;8.20;7.30;;;;;;;35.06;29.68;101870.13;109619;1251;60153;-71
2023/09/17 08:47:58;;;;;;;6.50;6.00;;;;;;;35.19;29.19;101867.55;109680;1250;60071;-70
2023/09/17 08:50:27;;;;;;;8.00;7.20;;;;;;;35.29;28.36;101868.79;109657;1250;72614;-70
2023/09/17 08:53:01;;;;;;;7.70;6.90;;;;;;;35.18;27.92;101865.98;109505;1251;63692;-71
2023/09/17 08:55:29;;;;;;;8.50;7.70;;;;;;;35.24;28.45;101865.53;109555;1250;72757;-70
2023/09/17 08:58:14;;;;;;;6.90;6.20;;;;;;;35.47;28.41;101864.39;109507;1253;58784;-72
2023/09/17 09:00:47;;;;;;;8.30;6.70;;;;;;;35.61;27.86;101863.69;109571;1250;60761;-70
2023/09/17 09:03:14;;;;;;;7.20;6.40;;;;;;;35.69;27.67;101856.80;109603;1251;72779;-71
2023/09/17 09:05:44;;;;;;;6.70;5.90;;;;;;;35.80;27.35;101856.20;109670;1251;63500;-70
2023/09/17 09:08:12;;;;;;;7.10;6.20;;;;;;;35.77;27.10;101852.89;109468;1251;71833;-71
2023/09/17 09:10:40;;;;;;;7.40;6.70;;;;;;;35.82;26.82;101852.00;109525;1251;58883;-71
2023/09/17 09:13:08;;;;;;;8.80;6.40;;;;;;;35.93;26.94;101849.50;109703;1250;60269;-73
2023/09/17 09:15:35;;;;;;;12.40;6.20;;;;;;;36.09;26.95;101846.56;109682;1251;72824;-72
2023/09/17 09:18:03;;;;;;;7.20;5.10;;;;;;;36.25;26.67;101844.52;109563;1251;62710;-71
2023/09/17 09:20:30;;;;;;;6.00;4.30;;;;;;;36.35;26.08;101843.57;109686;1251;72860;-71
2023/09/17 09:22:58;;;;;;;5.00;4.60;;;;;;;36.37;25.45;101839.08;109437;1251;58231;-71
2023/09/17 09:25:28;;;;;;;5.30;4.50;;;;;;;36.33;25.24;101835.83;109693;1250;59189;-71
2023/09/17 09:28:00;;;;;;;4.20;3.70;;;;;;;36.30;24.84;101833.02;109679;1250;64969;-73
2023/09/17 09:30:27;;;;;;;4.60;4.10;;;;;;;36.32;24.61;101832.95;109673;1250;58225;-71
2023/09/17 09:32:55;;;;;;;4.20;3.60;;;;;;;36.36;23.62;101830.05;109709;1251;63859;-72
2023/09/17 09:35:23;;;;;;;6.20;5.70;;;;;;;36.45;23.99;101829.95;109510;1253;58111;-72
2023/09/17 09:37:51;;;;;;;4.70;4.20;;;;;;;36.54;24.04;101828.41;109682;1251;58113;-71
2023/09/17 09:40:18;;;;;;;5.30;4.10;;;;;;;36.58;23.66;101827.64;109674;1253;63709;-73
2023/09/17 09:42:46;;;;;;;5.60;4.00;;;;;;;36.50;24.33;101829.96;109522;1250;58199;-73
2023/09/17 09:45:15;;;;;;;4.20;3.80;;;;;;;36.52;23.43;101828.36;109676;1251;72689;-72
2023/09/17 09:47:49;;;;;;;4.40;3.70;;;;;;;36.56;23.61;101827.03;109608;1250;58139;-71
2023/09/17 09:50:22;;;;;;;4.10;3.80;;;;;;;36.62;23.78;101827.71;109690;1251;58222;-72
2023/09/17 09:52:49;;;;;;;5.10;3.90;;;;;;;36.72;23.00;101824.27;109675;1251;63696;-72
2023/09/17 09:55:17;;;;;;;4.20;3.40;;;;;;;36.80;23.02;101819.41;109676;1251;58216;-71
2023/09/17 09:57:45;;;;;;;3.80;3.50;;;;;;;36.88;23.57;101820.14;109536;1251;63812;-71
2023/09/17 10:00:16;;;;;;;3.60;3.30;;;;;;;36.95;23.58;101817.02;109620;1250;58152;-70
2023/09/17 10:02:44;;;;;;;5.70;4.00;;;;;;;37.02;23.92;101813.23;109582;1250;58235;-70
2023/09/17 10:05:12;;;;;;;4.40;3.60;;;;;;;37.10;23.35;101817.48;109529;1251;65063;-72
2023/09/17 10:07:40;;;;;;;3.80;3.60;;;;;;;37.24;23.26;101814.96;109698;1250;58252;-71
2023/09/17 10:10:10;;;;;;;4.40;3.90;;;;;;;37.30;23.03;101815.09;109511;1253;63766;-70
2023/09/17 10:12:37;;;;;;;3.90;3.30;;;;;;;37.20;23.14;101815.85;109589;1251;58165;-71
2023/09/17 10:15:07;;;;;;;7.10;3.30;;;;;;;37.07;23.23;101813.76;109759;1250;58094;-72
2023/09/17 10:17:36;;;;;;;3.90;3.60;;;;;;;37.02;23.16;101814.45;109602;1251;63787;-70
2023/09/17 10:20:06;;;;;;;3.50;3.30;;;;;;;37.00;23.25;101810.35;109645;1250;58205;-70
2023/09/17 10:22:37;;;;;;;3.90;3.60;;;;;;;36.94;23.20;101810.66;109562;1250;63750;-71
2023/09/17 10:28:31;;;;;;;3.00;2.70;;;;;;;36.88;23.15;101810.21;102587;1289;602442;-73
2023/09/17 10:30:58;;;;;;;4.70;3.30;;;;;;;36.79;22.78;101809.40;105746;1259;59257;-72
2023/09/17 10:33:25;;;;;;;2.60;2.40;;;;;;;36.67;22.65;101809.73;105348;1260;59452;-72
2023/09/17 10:35:52;;;;;;;5.90;3.50;;;;;;;36.48;22.75;101806.25;105402;1263;63548;-73
2023/09/17 10:38:20;;;;;;;3.50;3.20;;;;;;;36.27;22.48;101803.23;105409;1261;59263;-71
2023/09/17 10:40:47;;;;;;;4.90;3.50;;;;;;;36.05;22.73;101800.84;105478;1262;221681;-71
2023/09/17 10:43:15;;;;;;;4.40;4.10;;;;;;;36.11;23.45;101802.16;105752;1259;60325;-73
2023/09/17 10:45:42;;;;;;;6.20;4.00;;;;;;;36.23;23.59;101801.36;105780;1256;60812;-72
2023/09/17 10:48:09;;;;;;;5.60;5.10;;;;;;;36.26;23.43;101800.63;105696;1255;72127;-70
2023/09/17 10:50:36;;;;;;;5.00;3.90;;;;;;;36.20;23.21;101791.36;105789;1257;62562;-70
2023/09/17 10:53:04;;;;;;;4.70;4.30;;;;;;;36.08;22.98;101792.88;105565;1260;72477;-71
2023/09/17 10:55:36;;;;;;;4.20;3.90;;;;;;;35.92;23.24;101788.58;105634;1258;60358;-72
2023/09/17 10:58:15;;;;;;;4.00;3.60;;;;;;;35.57;23.58;101788.11;105671;1254;59551;-76
2023/09/17 11:00:42;;;;;;;4.10;3.80;;;;;;;35.24;23.65;101787.05;105867;1254;73184;-71
2023/09/17 11:03:13;;;;;;;3.30;3.10;;;;;;;35.01;24.15;101784.36;105778;1258;63866;-73
2023/09/17 11:07:41;;;;;;;4.50;3.90;;;;;;;35.10;24.11;101784.13;102106;1297;602560;-72
2023/09/17 11:10:12;;;;;;;5.10;3.50;;;;;;;35.10;24.16;101783.84;105703;1259;60060;-72
2023/09/17 11:12:56;;;;;;;4.00;3.70;;;;;;;35.02;24.47;101781.70;105599;1259;59897;-73